Latest Coastal Weather Observations for Geelong Racecourse

IDV60701

Issued at 4:12 am EST Sunday 24 September 2017 (issued every 10 minutes, with the page automatically refreshed every 10 minutes)

About coastal observations | Map of coastal stations | Coastal observations for VIC | Marine services | Other Formats
Station Details ID: 087184 Name: GEELONG RACECOURSE Lat: -38.17 Lon: 144.38 Height: 12.9 m
Data from the previous 72 hours. | See also: Recent months at Geelong Racecourse
Date/Time
EST
Temp
°C
Wind Pressure Rain since
9am
mm
Weather Cloud Vis
km
Sea
Height
m
Swell
Dir  Spd
kts
Gust
kts
hPa Trend Height
m
Period
s
Dir
24/04:00am 11.5 NW 7 11 997.4 - 0.0 - - - - - - -
24/03:30am 11.9 NW 10 16 997.2 - 0.0 - - - - - - -
24/03:00am 12.2 WNW 12 20 997.5 - 0.0 - - - - - - -
24/02:30am 12.6 NW 12 18 997.7 - 0.0 - - - - - - -
24/02:00am 13.0 WNW 12 20 997.8 - 0.0 - - - - - - -
24/01:30am 13.2 WNW 11 18 998.0 - 0.0 - - - - - - -
24/01:00am 13.1 WNW 11 18 998.0 - 0.0 - - - - - - -
24/12:30am 13.1 WNW 10 16 998.0 - 0.0 - - - - - - -
24/12:00am 13.2 WNW 8 14 998.2 - 0.0 - - - - - - -
 
Date/Time
EST
Temp
°C
Wind Pressure Rain since
9am
mm
Weather Cloud Vis
km
Sea
Height
m
Swell
Dir  Spd
kts
Gust
kts
hPa Trend Height
m
Period
s
Dir
23/11:30pm 13.6 WNW 10 16 998.4 - 0.0 - - - - - - -
23/11:00pm 14.0 WNW 10 17 998.5 - 0.0 - - - - - - -
23/10:30pm 14.2 WNW 10 17 998.5 - 0.0 - - - - - - -
23/10:00pm 14.7 WNW 12 20 998.5 - 0.0 - - - - - - -
23/09:30pm 14.7 WNW 11 14 998.3 - 0.0 - - - - - - -
23/09:00pm 14.8 WNW 10 15 998.1 - 0.0 - - - - - - -
23/08:30pm 15.0 WNW 13 18 997.7 - 0.0 - - - - - - -
23/08:00pm 14.8 WNW 10 17 997.2 - 0.0 - - - - - - -
23/07:30pm 14.6 NW 9 14 996.8 - 0.0 - - - - - - -
23/07:00pm 14.9 WNW 11 16 996.5 - 0.0 - - - - - - -
23/06:30pm 15.1 W 10 19 996.1 - 0.0 - - - - - - -
23/06:00pm 15.7 W 12 21 995.6 - 0.0 - - - - - - -
23/05:30pm 16.1 WSW 12 20 994.6 - 0.0 - - - - - - -
23/05:00pm 16.5 SW 13 19 994.2 - 0.0 - - - - - - -
23/04:30pm 16.8 SSW 16 25 992.6 - 0.0 - - - - - - -
23/04:16pm 19.2 SSW 16 28 991.9 - 0.0 - - - - - - -
23/04:00pm 19.0 SSW 14 20 991.1 - 0.0 - - - - - - -
23/03:30pm 19.7 SSW 10 13 989.9 - 0.0 - - - - - - -
23/03:00pm 19.6 SSW 9 11 990.2 - 0.0 - - - - - - -
23/02:30pm 19.1 S 4 6 990.3 - 0.0 - - - - - - -
23/02:00pm 19.3 S 7 10 990.0 - 0.0 - - - - - - -
23/01:30pm 19.7 S 7 10 990.5 - 0.0 - - - - - - -
23/01:00pm 19.4 S 8 11 991.0 - 0.0 - - - - - - -
23/12:30pm 19.9 SSE 9 13 991.7 - 0.0 - - - - - - -
23/12:00pm 18.8 S 10 13 992.6 - 0.0 - - - - - - -
23/11:30am 18.6 S 11 17 993.6 - 0.0 - - - - - - -
23/11:00am 18.6 S 14 20 994.8 - 0.0 - - - - - - -
23/10:30am 19.3 S 12 19 995.9 - 0.0 - - - - - - -
23/10:00am 19.3 S 9 13 995.8 - 0.0 - - - - - - -
23/09:30am 20.8 SSE 4 7 996.6 - 0.0 - - - - - - -
23/09:00am 19.3 SSE 5 9 997.0 - 0.0 - - - - - - -
23/08:30am 18.1 SSW 5 7 997.9 - 0.0 - - - - - - -
23/08:00am 16.5 S 4 7 998.2 - 0.0 - - - - - - -
23/07:30am 14.1 SW 7 11 998.7 - 0.0 - - - - - - -
23/07:00am 12.7 W 2 3 997.9 - 0.0 - - - - - - -
23/06:30am 12.2 SW 3 4 997.5 - 0.0 - - - - - - -
23/06:00am 12.3 CALM 0 0 997.0 - 0.0 - - - - - - -
23/05:30am 12.9 NNE 3 4 997.4 - 0.0 - - - - - - -
23/05:00am 11.3 SW 1 2 997.1 - 0.0 - - - - - - -
23/04:30am 11.8 NNE 1 4 997.1 - 0.0 - - - - - - -
23/04:00am 12.3 SSW 1 5 998.2 - 0.0 - - - - - - -
23/03:30am 13.4 SSW 1 2 998.9 - 0.0 - - - - - - -
23/03:00am 15.2 E 2 3 999.7 - 0.0 - - - - - - -
23/02:30am 15.8 NNE 2 5 1000.5 - 0.0 - - - - - - -
23/02:00am 16.1 NE 7 10 1000.6 - 0.0 - - - - - - -
23/01:30am 16.4 NNE 5 7 1001.2 - 0.0 - - - - - - -
23/01:00am 16.2 NE 6 9 1001.5 - 0.0 - - - - - - -
23/12:30am 15.5 NE 6 10 1002.1 - 0.0 - - - - - - -
23/12:00am 15.5 NE 6 9 1002.6 - 0.0 - - - - - - -
 
Date/Time
EST
Temp
°C
Wind Pressure Rain since
9am
mm
Weather Cloud Vis
km
Sea
Height
m
Swell
Dir  Spd
kts
Gust
kts
hPa Trend Height
m
Period
s
Dir
22/11:30pm 15.3 NE 5 7 1003.0 - 0.0 - - - - - - -
22/11:00pm 14.8 NE 4 5 1003.4 - 0.0 - - - - - - -
22/10:30pm 14.8 NNE 2 3 1003.7 - 0.0 - - - - - - -
22/10:00pm 15.1 N 2 4 1003.8 - 0.0 - - - - - - -
22/09:30pm 14.8 NE 4 5 1003.9 - 0.0 - - - - - - -
22/09:00pm 14.8 NE 3 6 1004.4 - 0.0 - - - - - - -
22/08:30pm 15.4 NNE 2 2 1004.8 - 0.0 - - - - - - -
22/08:00pm 16.0 NNE 3 5 1005.0 - 0.0 - - - - - - -
22/07:30pm 15.8 N 1 2 1004.8 - 0.0 - - - - - - -
22/07:00pm 17.1 NNE 4 5 1004.8 - 0.0 - - - - - - -
22/06:30pm 18.2 NNE 3 5 1004.6 - 0.0 - - - - - - -
22/06:00pm 19.2 NE 1 3 1004.6 - 0.0 - - - - - - -
22/05:30pm 19.6 NNE 3 4 1004.8 - 0.0 - - - - - - -
22/05:00pm 20.1 NNE 3 5 1004.7 - 0.0 - - - - - - -
22/04:30pm 20.3 NE 4 6 1004.7 - 0.0 - - - - - - -
22/04:00pm 21.3 NNE 4 6 1005.0 - 0.0 - - - - - - -
22/03:30pm 21.2 NNE 5 6 1005.0 - 0.0 - - - - - - -
22/03:00pm 20.7 NE 3 5 1005.2 - 0.0 - - - - - - -
22/02:30pm 22.5 NW 1 2 1005.4 - 0.0 - - - - - - -
22/02:00pm 20.5 NNE 3 5 1005.7 - 0.0 - - - - - - -
22/01:30pm 19.8 NE 3 5 1006.1 - 0.0 - - - - - - -
22/01:00pm 19.4 NNE 4 6 1006.6 - 0.0 - - - - - - -
22/12:30pm 18.5 NE 4 7 1007.1 - 0.0 - - - - - - -
22/12:00pm 17.1 ENE 4 7 1007.8 - 0.0 - - - - - - -
22/11:30am 16.4 ENE 6 9 1008.0 - 0.0 - - - - - - -
22/11:00am 16.0 ENE 7 10 1008.4 - 0.0 - - - - - - -
22/10:30am 15.7 NE 6 9 1009.0 - 0.0 - - - - - - -
22/10:00am 15.5 NE 6 9 1009.2 - 0.0 - - - - - - -
22/09:30am 15.3 NE 5 8 1009.3 - 0.0 - - - - - - -
22/09:00am 14.6 NNE 5 8 1009.6 - 0.0 - - - - - - -
22/08:30am 13.9 NE 5 9 1009.4 - 0.0 - - - - - - -
22/08:00am 11.9 CALM 0 0 1009.4 - 0.0 - - - - - - -
22/07:30am 11.6 ENE 1 2 1009.6 - 0.0 - - - - - - -
22/07:00am 10.6 CALM 0 0 1009.7 - 0.0 - - - - - - -
22/06:30am 10.2 CALM 0 0 1009.6 - 0.0 - - - - - - -
22/06:00am 10.0 CALM 0 3 1009.7 - 0.0 - - - - - - -
22/05:30am 9.6 CALM 0 0 1009.9 - 0.0 - - - - - - -
22/05:00am 9.4 CALM 0 0 1009.8 - 0.0 - - - - - - -
22/04:30am 9.3 N 2 3 1009.7 - 0.0 - - - - - - -
22/04:00am 10.4 N 1 1 1009.8 - 0.0 - - - - - - -
22/03:30am 10.7 N 2 3 1009.9 - 0.0 - - - - - - -
22/03:00am 11.4 ENE 1 2 1010.0 - 0.0 - - - - - - -
22/02:30am 11.7 CALM 0 0 1010.5 - 0.0 - - - - - - -
22/02:00am 11.9 CALM 0 0 1011.0 - 0.0 - - - - - - -
22/01:30am 11.9 CALM 0 1 1011.6 - 0.0 - - - - - - -
22/01:00am 12.2 CALM 0 0 1011.8 - 0.0 - - - - - - -
22/12:30am 12.1 CALM 0 0 1011.8 - 0.0 - - - - - - -
22/12:00am 12.2 NE 1 1 1011.9 - 0.0 - - - - - - -
 
Date/Time
EST
Temp
°C
Wind Pressure Rain since
9am
mm
Weather Cloud Vis
km
Sea
Height
m
Swell
Dir  Spd
kts
Gust
kts
hPa Trend Height
m
Period
s
Dir
21/11:30pm 12.3 NE 1 2 1012.0 - 0.0 - - - - - - -
21/11:00pm 11.9 CALM 0 0 1012.1 - 0.0 - - - - - - -
21/10:30pm 12.1 E 1 2 1012.2 - 0.0 - - - - - - -
21/10:00pm 12.6 ESE 1 3 1011.9 - 0.0 - - - - - - -
21/09:30pm 12.7 W 2 4 1011.7 - 0.0 - - - - - - -
21/09:00pm 13.1 W 4 6 1011.3 - 0.0 - - - - - - -
21/08:30pm 13.8 W 5 7 1011.1 - 0.0 - - - - - - -
21/08:00pm 13.5 CALM 0 0 1010.6 - 0.0 - - - - - - -
21/07:30pm 13.5 SW 4 6 1009.9 - 0.0 - - - - - - -
21/07:00pm 13.7 S 5 6 1009.3 - 0.0 - - - - - - -
21/06:30pm 14.0 S 7 10 1008.7 - 0.0 - - - - - - -
21/06:00pm 17.2 SW 7 10 1008.3 - 0.0 - - - - - - -
21/05:30pm 18.3 WSW 7 12 1008.1 - 0.0 - - - - - - -
21/05:00pm 19.1 W 9 14 1007.7 - 0.0 - - - - - - -
21/04:30pm 19.9 W 10 15 1007.5 - 0.0 - - - - - - -
21/04:00pm 20.9 W 13 19 1007.1 - 0.0 - - - - - - -
21/03:30pm 22.3 NW 15 23 1006.9 - 0.0 - - - - - - -
21/03:00pm 22.6 NW 16 25 1006.9 - 0.0 - - - - - - -
21/02:54pm 23.0 NW 15 25 1007.1 - 0.0 - - - - - - -
21/02:30pm 22.9 NW 13 20 1007.0 - 0.0 - - - - - - -
21/02:00pm 22.3 NW 14 21 1007.0 - 0.0 - - - - - - -
21/01:30pm 22.0 NW 9 15 1007.0 - 0.0 - - - - - - -
21/01:00pm 21.9 NW 14 24 1007.2 - 0.0 - - - - - - -
21/12:51pm 22.1 NW 15 27 1007.1 - 0.0 - - - - - - -
21/12:30pm 22.5 NNW 13 20 1007.4 - 0.0 - - - - - - -
21/12:00pm 21.8 N 14 20 1007.7 - 0.0 - - - - - - -
21/11:30am 21.8 N 12 18 1007.6 - 0.0 - - - - - - -
21/11:00am 21.3 N 9 17 1008.0 - 0.0 - - - - - - -
21/10:30am 18.0 ENE 11 16 1008.5 - 0.0 - - - - - - -
21/10:00am 16.1 NNE 11 15 1009.5 - 0.0 - - - - - - -
21/09:30am 14.4 NNE 11 16 1009.9 - 0.0 - - - - - - -
21/09:00am 13.9 NE 9 13 1010.1 - 0.0 - - - - - - -
21/08:30am 12.9 NE 9 14 1010.4 - 0.0 - - - - - - -
21/08:00am 12.6 NNE 10 14 1010.9 - 0.0 - - - - - - -
21/07:30am 12.4 NNE 10 17 1010.9 - 0.0 - - - - - - -
21/07:00am 12.4 NNE 10 15 1011.5 - 0.0 - - - - - - -
21/06:30am 12.4 NNE 10 15 1011.5 - 0.0 - - - - - - -
21/06:00am 12.2 N 6 11 1011.1 - 0.0 - - - - - - -
21/05:30am 12.0 NE 7 11 1010.9 - 0.0 - - - - - - -
21/05:00am 12.1 NNE 9 14 1011.1 - 0.0 - - - - - - -
21/04:30am 12.2 NE 8 13 1011.2 - 0.0 - - - - - - -

Other Formats:

Comma delimited format used in spreadsheet applications
http://www.bom.gov.au/fwo/IDV60701/IDV60701.94857.axf

JavaScript Object Notation format (JSON) in row-major order
http://www.bom.gov.au/fwo/IDV60701/IDV60701.94857.json